Terminal Aerodrome Forecast
Issued by NWS Charleston, WV

Current Version | Previous Version | Text Only | Print | Product List | Glossary Off
Versions: 1 2 3 4 5 6 7 8 9 10 11 12 13 14 15 16 17 18 19 20 21 22

000
FTUS41 KRLX 151700
TAFPKB
TAF
KPKB 151740Z 1518/1618 VRB03KT P6SM SCT250
     FM160600 15005KT 6SM -SHRA OVC040
     FM160800 17006KT 3SM -SHRA BR OVC030
     FM161100 18007KT 6SM BR OVC027
     FM161500 21010G16KT 6SM BR OVC016=

USA.gov is the U.S. government's official web portal to all federal, state and local government web resources and services.